createdAt,value
2018-05-26T00:00:44.503Z,16.23
2018-05-26T00:01:44.562Z,16.31
2018-05-26T00:02:44.542Z,16.23
2018-05-26T00:03:44.538Z,16.16
2018-05-26T00:04:44.528Z,16.22
2018-05-26T00:05:44.539Z,16.18
2018-05-26T00:06:45.084Z,16.14
2018-05-26T00:07:44.525Z,16.12
2018-05-26T00:08:44.528Z,16.12
2018-05-26T00:09:45.125Z,16.04
2018-05-26T00:10:44.528Z,16.09
2018-05-26T00:11:44.595Z,16.04
2018-05-26T00:12:44.491Z,16.07
2018-05-26T00:13:45.164Z,16.07
2018-05-26T00:14:44.571Z,16.01
2018-05-26T00:15:44.446Z,16.04
2018-05-26T00:16:44.485Z,16.06
2018-05-26T00:17:44.482Z,16.03
2018-05-26T00:18:44.972Z,16.00
2018-05-26T00:19:44.535Z,16.01
2018-05-26T00:20:44.460Z,15.86
2018-05-26T00:21:44.568Z,15.89
2018-05-26T00:22:44.478Z,15.84
2018-05-26T00:23:44.518Z,15.72
2018-05-26T00:24:45.101Z,15.67
2018-05-26T00:25:44.408Z,15.64
2018-05-26T00:26:44.427Z,15.57
2018-05-26T00:27:44.405Z,15.48
2018-05-26T00:28:44.554Z,15.46
2018-05-26T00:29:44.422Z,15.52
2018-05-26T00:30:44.432Z,15.49
2018-05-26T00:31:44.478Z,15.64
2018-05-26T00:32:44.461Z,15.66
2018-05-26T00:33:44.440Z,15.74
2018-05-26T00:34:44.517Z,15.72
2018-05-26T00:35:44.467Z,15.74
2018-05-26T00:36:44.378Z,15.75
2018-05-26T00:37:45.063Z,15.78
2018-05-26T00:38:44.444Z,15.61
2018-05-26T00:39:44.407Z,15.76
2018-05-26T00:40:44.437Z,15.66
2018-05-26T00:41:45.137Z,15.72
2018-05-26T00:42:44.448Z,15.78
2018-05-26T00:43:44.354Z,15.67
2018-05-26T00:44:44.447Z,15.66
2018-05-26T00:45:44.333Z,15.64
2018-05-26T00:46:44.408Z,15.57
2018-05-26T00:47:44.432Z,15.59
2018-05-26T00:48:44.356Z,15.56
2018-05-26T00:49:44.405Z,15.51
2018-05-26T00:50:44.332Z,15.56
2018-05-26T00:51:45.152Z,15.46
2018-05-26T00:52:44.345Z,15.45
2018-05-26T00:53:45.084Z,15.46
2018-05-26T00:54:44.354Z,15.49
2018-05-26T00:55:44.414Z,15.41
2018-05-26T00:56:44.385Z,15.43
2018-05-26T00:57:44.356Z,15.41
2018-05-26T00:58:44.380Z,15.43
2018-05-26T00:59:44.385Z,15.36
2018-05-26T01:00:44.291Z,15.43
2018-05-26T01:01:44.318Z,15.41
2018-05-26T01:02:44.428Z,15.35
2018-05-26T01:03:44.386Z,15.30
2018-05-26T01:04:44.984Z,15.27
2018-05-26T01:05:44.350Z,15.27
2018-05-26T01:06:44.277Z,15.19
2018-05-26T01:07:45.089Z,15.13
2018-05-26T01:08:44.348Z,15.28
2018-05-26T01:09:45.103Z,15.27
2018-05-26T01:10:44.295Z,15.33
2018-05-26T01:11:44.348Z,15.27
2018-05-26T01:12:44.294Z,15.31
2018-05-26T01:13:44.418Z,15.28
2018-05-26T01:14:44.329Z,15.27
2018-05-26T01:15:45.122Z,15.23
2018-05-26T01:16:44.337Z,15.17
2018-05-26T01:17:44.293Z,15.17
2018-05-26T01:18:44.380Z,15.08
2018-05-26T01:19:44.323Z,15.20
2018-05-26T01:20:44.335Z,15.08
2018-05-26T01:21:44.256Z,15.09
2018-05-26T01:22:44.321Z,15.08
2018-05-26T01:23:44.279Z,15.09
2018-05-26T01:24:44.279Z,15.05
2018-05-26T01:25:44.251Z,15.08
2018-05-26T01:26:44.269Z,15.01
2018-05-26T01:27:44.212Z,15.06
2018-05-26T01:28:44.287Z,15.08
2018-05-26T01:29:44.210Z,15.02
2018-05-26T01:30:44.210Z,14.98
2018-05-26T02:03:57.999Z,14.34
2018-05-26T02:04:57.968Z,14.34
2018-05-26T02:06:50.876Z,14.42
2018-05-26T02:07:50.859Z,14.39
2018-05-26T02:08:50.859Z,14.38
2018-05-26T02:09:50.852Z,14.44
2018-05-26T02:10:50.841Z,14.49
2018-05-26T02:11:50.826Z,14.46
2018-05-26T02:12:50.826Z,14.50
2018-05-26T02:13:50.814Z,14.50
2018-05-26T02:14:50.812Z,14.43
2018-05-26T02:15:50.804Z,14.44
2018-05-26T02:16:50.796Z,14.47
2018-05-26T02:17:50.795Z,14.38
2018-05-26T02:18:50.794Z,14.49
2018-05-26T02:19:50.808Z,14.38
2018-05-26T02:20:50.778Z,14.34
2018-05-26T02:21:50.784Z,14.38
2018-05-26T02:22:50.817Z,14.37
2018-05-26T02:23:50.769Z,14.25
2018-05-26T02:24:50.764Z,14.31
2018-05-26T02:25:50.761Z,14.38
2018-05-26T02:26:50.822Z,14.43
2018-05-26T02:27:50.754Z,14.29
2018-05-26T02:28:50.796Z,14.25
2018-05-26T02:29:50.740Z,14.21
2018-05-26T02:30:50.741Z,14.25
2018-05-26T02:31:50.742Z,14.16
2018-05-26T02:32:50.734Z,14.09
2018-05-26T02:33:50.731Z,14.12
2018-05-26T02:34:50.728Z,14.07
2018-05-26T02:35:50.723Z,14.07
2018-05-26T02:36:50.722Z,14.04
2018-05-26T02:37:50.716Z,13.99
2018-05-26T02:38:50.711Z,13.99
2018-05-26T02:39:50.709Z,13.95
2018-05-26T02:40:50.704Z,14.01
2018-05-26T02:41:50.715Z,14.01
2018-05-26T02:42:50.718Z,14.09
2018-05-26T02:43:50.691Z,14.12
2018-05-26T02:44:50.692Z,14.07
2018-05-26T02:45:50.692Z,14.14
2018-05-26T02:46:50.684Z,14.14
2018-05-26T02:47:50.676Z,14.25
2018-05-26T02:48:50.679Z,14.24
2018-05-26T02:49:50.661Z,14.24
2018-05-26T02:50:50.660Z,14.24
2018-05-26T02:51:50.664Z,14.19
2018-05-26T02:52:50.670Z,14.20
2018-05-26T02:53:50.663Z,14.21
2018-05-26T02:54:50.650Z,14.21
2018-05-26T02:55:50.644Z,14.27
2018-05-26T02:56:50.705Z,14.25
2018-05-26T02:57:50.638Z,14.25
2018-05-26T02:58:50.636Z,14.20
2018-05-26T02:59:50.628Z,14.17
2018-05-26T03:00:50.679Z,14.17
2018-05-26T03:01:50.633Z,14.16
2018-05-26T03:02:50.624Z,14.19
2018-05-26T03:03:50.633Z,14.19
2018-05-26T03:04:50.613Z,14.20
2018-05-26T03:05:50.614Z,14.19
2018-05-26T03:06:50.625Z,14.12
2018-05-26T03:07:50.597Z,14.09
2018-05-26T03:08:50.603Z,14.12
2018-05-26T03:09:50.589Z,14.07
2018-05-26T03:10:50.592Z,14.10
2018-05-26T03:11:50.593Z,14.02
2018-05-26T03:12:50.590Z,14.09
2018-05-26T03:13:50.587Z,14.09
2018-05-26T03:14:50.578Z,14.10
2018-05-26T03:15:50.591Z,14.12
2018-05-26T03:16:50.568Z,14.09
2018-05-26T03:17:50.572Z,14.10
2018-05-26T03:18:50.562Z,14.13
2018-05-26T03:19:50.561Z,14.13
2018-05-26T03:20:50.558Z,14.13
2018-05-26T03:21:50.552Z,14.19
2018-05-26T03:22:50.556Z,14.14
2018-05-26T03:23:50.558Z,14.16
2018-05-26T03:24:50.535Z,14.04
2018-05-26T03:25:50.573Z,14.10
2018-05-26T03:26:50.583Z,14.07
2018-05-26T03:27:50.531Z,14.10
2018-05-26T03:28:50.527Z,14.14
2018-05-26T03:29:50.517Z,14.10
2018-05-26T03:30:50.511Z,14.12
2018-05-26T03:31:50.532Z,14.13
2018-05-26T03:32:50.513Z,14.19
2018-05-26T03:33:50.509Z,14.19
2018-05-26T03:34:50.521Z,14.24
2018-05-26T03:35:50.499Z,14.14
2018-05-26T03:36:50.500Z,14.16
2018-05-26T03:37:50.487Z,14.16
2018-05-26T03:38:50.501Z,14.19
2018-05-26T03:39:50.501Z,14.24
2018-05-26T03:40:50.497Z,14.31
2018-05-26T03:41:50.471Z,14.27
2018-05-26T03:42:50.471Z,14.29
2018-05-26T03:43:50.476Z,14.19
2018-05-26T03:44:50.469Z,14.25
2018-05-26T03:45:50.463Z,14.29
2018-05-26T03:46:50.474Z,14.20
2018-05-26T03:47:50.449Z,14.31
2018-05-26T03:48:50.453Z,14.29
2018-05-26T03:49:50.452Z,14.46
2018-05-26T03:50:50.454Z,14.35
2018-05-26T03:51:50.458Z,14.37
2018-05-26T03:52:50.444Z,14.46
2018-05-26T03:53:50.432Z,14.53
2018-05-26T03:54:50.430Z,14.60
2018-05-26T03:55:50.433Z,14.64
2018-05-26T03:56:50.514Z,14.68
2018-05-26T03:57:50.414Z,14.69
2018-05-26T03:58:50.413Z,14.75
2018-05-26T03:59:50.414Z,14.78
2018-05-26T04:00:50.411Z,14.90
2018-05-26T04:01:50.451Z,14.95
2018-05-26T04:02:50.394Z,15.02
2018-05-26T04:03:50.402Z,15.05
2018-05-26T04:04:50.393Z,15.01
2018-05-26T04:05:50.434Z,15.01
2018-05-26T04:06:50.384Z,15.08
2018-05-26T04:07:50.383Z,15.09
2018-05-26T04:08:50.395Z,15.09
2018-05-26T04:09:50.374Z,15.24
2018-05-26T04:10:50.393Z,15.24
2018-05-26T04:11:50.374Z,15.31
2018-05-26T04:12:50.370Z,15.39
2018-05-26T04:13:50.364Z,15.42
2018-05-26T04:14:50.359Z,15.42
2018-05-26T04:15:50.369Z,15.56
2018-05-26T04:16:50.357Z,15.54
2018-05-26T04:17:50.347Z,15.57
2018-05-26T04:18:50.352Z,15.68
2018-05-26T04:19:50.346Z,15.63
2018-05-26T04:20:50.361Z,15.79
2018-05-26T04:21:50.342Z,15.82
2018-05-26T04:22:50.387Z,15.89
2018-05-26T04:23:50.333Z,15.89
2018-05-26T04:24:50.333Z,15.96
2018-05-26T04:25:50.336Z,15.96
2018-05-26T04:26:50.364Z,16.03
2018-05-26T04:27:50.323Z,16.11
2018-05-26T04:28:50.317Z,16.14
2018-05-26T04:29:50.316Z,16.09
2018-05-26T04:30:50.318Z,16.23
2018-05-26T04:31:50.316Z,16.15
2018-05-26T04:32:50.336Z,16.33
2018-05-26T04:33:50.372Z,16.33
2018-05-26T04:34:50.306Z,16.38
2018-05-26T04:35:50.303Z,16.45
2018-05-26T04:36:50.298Z,16.49
2018-05-26T04:37:50.310Z,16.55
2018-05-26T04:38:50.307Z,16.49
2018-05-26T04:39:50.298Z,16.49
2018-05-26T04:40:50.292Z,16.67
2018-05-26T04:41:50.293Z,16.78
2018-05-26T04:42:50.287Z,16.80
2018-05-26T04:43:50.285Z,16.86
2018-05-26T04:44:50.288Z,16.85
2018-05-26T04:45:50.283Z,16.98
2018-05-26T04:46:50.279Z,16.99
2018-05-26T04:47:50.278Z,17.03
2018-05-26T04:48:50.278Z,17.04
2018-05-26T04:49:50.281Z,17.15
2018-05-26T04:50:50.274Z,17.04
2018-05-26T04:51:50.306Z,16.93
2018-05-26T04:52:50.282Z,16.96
2018-05-26T04:53:50.266Z,16.81
2018-05-26T04:54:50.263Z,16.81
2018-05-26T04:55:50.262Z,16.93
2018-05-26T04:56:50.314Z,16.83
2018-05-26T04:57:50.263Z,17.03
2018-05-26T04:58:50.255Z,16.92
2018-05-26T04:59:50.249Z,17.00
2018-05-26T05:00:50.253Z,17.06
2018-05-26T05:01:50.251Z,17.07
2018-05-26T05:02:50.252Z,17.07
2018-05-26T05:03:50.261Z,17.18
2018-05-26T05:04:50.270Z,17.26
2018-05-26T05:05:50.275Z,17.14
2018-05-26T05:06:50.243Z,17.13
2018-05-26T05:07:50.264Z,17.30
2018-05-26T05:08:50.256Z,17.23
2018-05-26T05:09:50.245Z,17.25
2018-05-26T05:10:50.235Z,17.43
2018-05-26T05:11:50.223Z,17.38
2018-05-26T05:12:50.222Z,17.51
2018-05-26T05:13:50.229Z,17.54
2018-05-26T05:14:50.235Z,17.66
2018-05-26T05:15:50.240Z,17.73
2018-05-26T05:16:50.233Z,17.66
2018-05-26T05:17:50.234Z,17.66
2018-05-26T05:18:50.229Z,17.62
2018-05-26T05:19:50.227Z,17.66
2018-05-26T05:20:50.234Z,17.62
2018-05-26T05:21:50.220Z,17.63
2018-05-26T05:22:50.276Z,17.64
2018-05-26T05:23:50.220Z,17.70
2018-05-26T05:24:50.214Z,17.63
2018-05-26T05:25:50.243Z,17.71
2018-05-26T05:26:50.249Z,17.81
2018-05-26T05:27:50.222Z,17.79
2018-05-26T05:28:50.232Z,17.64
2018-05-26T05:29:50.213Z,17.63
2018-05-26T05:30:50.228Z,17.69
2018-05-26T05:31:50.211Z,17.79
2018-05-26T05:32:50.207Z,17.97
2018-05-26T05:33:50.208Z,17.88
2018-05-26T05:34:50.209Z,17.94
2018-05-26T05:35:52.925Z,18.00
2018-05-26T05:36:50.263Z,18.02
2018-05-26T05:37:50.875Z,18.03
2018-05-26T05:38:50.225Z,17.91
2018-05-26T05:39:50.236Z,17.91
2018-05-26T05:40:50.237Z,17.88
2018-05-26T05:41:50.243Z,17.91
2018-05-26T05:42:50.242Z,17.94
2018-05-26T05:43:50.259Z,18.00
2018-05-26T05:44:50.216Z,18.13
2018-05-26T05:45:50.214Z,18.24
2018-05-26T05:46:50.227Z,18.37
2018-05-26T05:47:50.237Z,18.36
2018-05-26T05:48:50.212Z,18.47
2018-05-26T05:49:50.209Z,18.44
2018-05-26T05:50:50.250Z,18.39
2018-05-26T05:51:50.227Z,18.43
2018-05-26T05:52:50.213Z,18.31
2018-05-26T05:53:50.208Z,18.42
2018-05-26T05:54:50.207Z,18.36
2018-05-26T05:55:50.207Z,18.07
2018-05-26T05:56:50.255Z,17.92
2018-05-26T05:57:50.201Z,18.07
2018-05-26T05:58:50.217Z,18.03
2018-05-26T05:59:50.246Z,17.92
2018-05-26T06:00:50.221Z,17.92
2018-05-26T06:01:50.201Z,17.87
2018-05-26T06:02:50.201Z,17.99
2018-05-26T06:03:50.200Z,17.99
2018-05-26T06:04:50.193Z,18.15
2018-05-26T06:05:50.194Z,18.13
2018-05-26T06:06:50.190Z,18.15
2018-05-26T06:07:50.212Z,18.24
2018-05-26T06:08:50.187Z,18.18
2018-05-26T06:09:50.187Z,18.10
2018-05-26T06:10:50.188Z,18.31
2018-05-26T06:11:50.188Z,18.42
2018-05-26T06:12:50.180Z,18.44
2018-05-26T06:13:50.191Z,18.44
2018-05-26T06:14:50.246Z,18.55
2018-05-26T06:15:50.246Z,18.58
2018-05-26T06:16:50.200Z,18.67
2018-05-26T06:17:50.194Z,18.83
2018-05-26T06:18:50.185Z,18.76
2018-05-26T06:19:50.276Z,18.87
2018-05-26T06:20:50.187Z,18.92
2018-05-26T06:21:50.297Z,19.05
2018-05-26T06:22:50.221Z,19.21
2018-05-26T06:23:50.212Z,19.33
2018-05-26T06:24:50.190Z,19.54
2018-05-26T06:25:50.205Z,19.66
2018-05-26T06:26:50.183Z,19.68
2018-05-26T06:27:50.205Z,19.80
2018-05-26T06:28:50.885Z,20.10
2018-05-26T06:29:50.280Z,19.90
2018-05-26T06:30:50.187Z,20.02
2018-05-26T06:31:50.924Z,20.05
2018-05-26T06:32:50.244Z,19.97
2018-05-26T06:33:50.179Z,20.21
2018-05-26T06:34:50.191Z,20.51
2018-05-26T06:35:50.293Z,20.53
2018-05-26T06:36:50.260Z,20.74
2018-05-26T06:37:50.225Z,20.83
2018-05-26T06:38:50.223Z,20.91
2018-05-26T06:39:50.190Z,21.27
2018-05-26T06:40:50.209Z,21.44
2018-05-26T06:41:50.300Z,21.63
2018-05-26T06:42:50.252Z,21.56
2018-05-26T06:43:50.258Z,21.36
2018-05-26T06:44:50.245Z,21.54
2018-05-26T06:45:50.267Z,21.63
2018-05-26T06:46:50.221Z,21.71
2018-05-26T06:47:50.289Z,21.38
2018-05-26T06:48:50.362Z,21.60
2018-05-26T06:49:50.579Z,21.66
2018-05-26T06:50:50.520Z,21.78
2018-05-26T06:51:50.204Z,22.02
2018-05-26T06:52:50.370Z,21.94
2018-05-26T06:53:51.000Z,22.02
2018-05-26T06:54:50.194Z,22.14
2018-05-26T06:55:50.200Z,22.37
2018-05-26T06:56:50.225Z,22.19
2018-05-26T06:57:50.208Z,22.49
2018-05-26T06:58:51.978Z,23.02
2018-05-26T06:59:50.366Z,23.22
2018-05-26T07:00:50.215Z,23.55
2018-05-26T07:01:50.481Z,23.57
2018-05-26T07:02:50.250Z,24.01
2018-05-26T07:03:50.364Z,23.92
2018-05-26T07:04:53.182Z,24.24
2018-05-26T07:05:50.327Z,24.31
2018-05-26T07:06:50.246Z,24.20
2018-05-26T07:07:50.886Z,23.71
2018-05-26T07:08:50.366Z,22.94
2018-05-26T07:09:50.261Z,23.47
2018-05-26T07:10:50.446Z,23.80
2018-05-26T07:11:50.305Z,24.47
2018-05-26T07:12:50.418Z,24.85
2018-05-26T07:13:50.313Z,24.53
2018-05-26T07:14:50.364Z,24.75
2018-05-26T07:15:50.322Z,24.45
2018-05-26T07:16:50.434Z,24.52
2018-05-26T07:17:50.316Z,25.28
2018-05-26T07:18:50.388Z,25.07
2018-05-26T07:19:50.510Z,24.64
2018-05-26T07:20:50.358Z,24.92
2018-05-26T07:21:50.357Z,25.31
2018-05-26T07:22:50.419Z,24.85
2018-05-26T07:23:50.369Z,24.69
2018-05-26T07:24:50.391Z,24.82
2018-05-26T07:25:50.379Z,25.17
2018-05-26T07:26:50.400Z,25.07
2018-05-26T07:27:50.480Z,25.65
2018-05-26T07:28:50.540Z,25.79
2018-05-26T07:29:50.468Z,25.52
2018-05-26T07:30:50.544Z,25.42
2018-05-26T07:31:50.496Z,25.47
2018-05-26T07:32:50.532Z,25.20
2018-05-26T07:33:51.441Z,25.64
2018-05-26T07:34:50.500Z,25.71
2018-05-26T07:35:50.574Z,25.94
2018-05-26T07:36:50.558Z,26.18
2018-05-26T07:37:50.626Z,25.47
2018-05-26T07:38:50.578Z,25.77
2018-05-26T07:39:50.623Z,26.11
2018-05-26T07:40:50.729Z,25.90
2018-05-26T07:41:51.401Z,26.31
2018-05-26T07:42:50.696Z,25.99
2018-05-26T07:43:50.718Z,25.54
2018-05-26T07:44:50.711Z,25.99
2018-05-26T07:45:50.686Z,25.91
2018-05-26T07:46:50.730Z,25.39
2018-05-26T07:47:50.755Z,25.49
2018-05-26T07:48:50.861Z,25.84
2018-05-26T07:49:50.768Z,26.20
2018-05-26T07:50:50.792Z,26.39
2018-05-26T07:51:50.810Z,26.31
2018-05-26T07:52:50.793Z,26.01
2018-05-26T07:53:50.823Z,26.29
2018-05-26T07:54:50.817Z,26.35
2018-05-26T07:55:51.502Z,26.42
2018-05-26T07:56:50.853Z,27.04
2018-05-26T07:57:50.867Z,27.88
2018-05-26T07:58:50.932Z,27.80
2018-05-26T07:59:51.004Z,26.87
2018-05-26T08:00:50.935Z,27.11
2018-05-26T08:01:50.927Z,26.59
2018-05-26T08:02:50.971Z,26.91
2018-05-26T08:03:50.948Z,27.48
2018-05-26T08:04:50.956Z,28.04
2018-05-26T08:05:50.950Z,27.46
2018-05-26T08:06:50.972Z,27.35
2018-05-26T08:07:50.976Z,27.41
2018-05-26T08:08:50.985Z,26.31
2018-05-26T08:09:50.998Z,26.84
2018-05-26T08:10:51.053Z,27.91
2018-05-26T08:11:51.038Z,26.99
2018-05-26T08:12:51.105Z,27.33
2018-05-26T08:13:51.112Z,27.47
2018-05-26T08:14:51.091Z,28.06
2018-05-26T08:15:51.095Z,28.38
2018-05-26T08:16:51.116Z,28.26
2018-05-26T08:17:51.155Z,27.85
2018-05-26T08:18:51.142Z,28.54
2018-05-26T08:19:51.179Z,28.51
2018-05-26T08:20:51.202Z,28.43
2018-05-26T08:21:51.201Z,28.96
2018-05-26T08:22:51.208Z,28.47
2018-05-26T08:23:51.991Z,28.21
2018-05-26T08:24:51.286Z,28.56
2018-05-26T08:25:51.282Z,28.23
2018-05-26T08:26:51.310Z,28.77
2018-05-26T08:27:51.299Z,28.23
2018-05-26T08:28:51.317Z,28.29
2018-05-26T08:29:51.331Z,28.56
2018-05-26T08:30:51.366Z,29.33
2018-05-26T08:31:51.364Z,29.84
2018-05-26T08:32:51.381Z,28.82
2018-05-26T08:33:51.439Z,28.77
2018-05-26T08:34:51.417Z,28.53
2018-05-26T08:35:51.487Z,29.22
2018-05-26T08:36:51.471Z,29.53
2018-05-26T08:37:51.457Z,30.02
2018-05-26T08:38:51.510Z,29.49
2018-05-26T08:39:51.533Z,29.65
2018-05-26T08:40:51.497Z,28.93
2018-05-26T08:41:51.526Z,29.18
2018-05-26T08:42:51.588Z,28.87
2018-05-26T08:43:51.630Z,28.35
2018-05-26T08:44:51.571Z,28.43
2018-05-26T08:45:51.597Z,29.03
2018-05-26T08:46:51.621Z,29.75
2018-05-26T08:47:51.662Z,29.86
2018-05-26T08:48:51.667Z,28.96
2018-05-26T08:49:51.685Z,27.48
2018-05-26T08:50:51.700Z,27.76
2018-05-26T08:51:51.706Z,28.01
2018-05-26T08:52:51.729Z,28.41
2018-05-26T08:53:51.833Z,29.01
2018-05-26T08:54:51.828Z,29.44
2018-05-26T08:55:51.818Z,29.47
2018-05-26T08:56:51.774Z,29.92
2018-05-26T08:57:51.792Z,28.73
2018-05-26T08:58:51.842Z,28.85
2018-05-26T08:59:51.827Z,28.58
2018-05-26T09:00:51.846Z,28.59
2018-05-26T09:01:51.863Z,28.38
2018-05-26T09:02:51.899Z,27.64
2018-05-26T09:03:51.910Z,28.28
2018-05-26T09:04:51.907Z,28.70
2018-05-26T09:05:51.928Z,29.03
2018-05-26T09:06:51.943Z,29.53
2018-05-26T09:07:51.994Z,28.63
2018-05-26T09:08:51.975Z,28.56
2018-05-26T09:09:52.046Z,28.46
2018-05-26T09:10:52.051Z,28.82
2018-05-26T09:11:52.042Z,28.62
2018-05-26T09:12:52.052Z,28.50
2018-05-26T09:13:52.053Z,28.40
2018-05-26T09:14:52.128Z,28.95
2018-05-26T09:15:52.150Z,28.88
2018-05-26T09:16:52.344Z,29.16
2018-05-26T09:17:52.255Z,29.28
2018-05-26T09:18:52.473Z,29.15
2018-05-26T09:19:52.367Z,29.33
2018-05-26T09:20:52.387Z,29.70
2018-05-26T09:21:52.498Z,28.95
2018-05-26T09:22:52.605Z,28.66
2018-05-26T09:23:52.344Z,28.54
2018-05-26T09:24:52.356Z,28.54
2018-05-26T09:25:52.522Z,28.97
2018-05-26T09:26:52.417Z,28.33
2018-05-26T09:27:52.389Z,28.65
2018-05-26T09:28:52.556Z,28.73
2018-05-26T09:29:52.474Z,29.66
2018-05-26T09:30:52.483Z,29.94
2018-05-26T09:31:52.513Z,30.12
2018-05-26T09:32:52.493Z,30.62
2018-05-26T09:33:52.568Z,30.15
2018-05-26T09:34:52.620Z,29.87
2018-05-26T09:35:52.543Z,30.30
2018-05-26T09:36:52.540Z,30.56
2018-05-26T09:37:52.620Z,30.89
2018-05-26T09:38:52.679Z,30.09
2018-05-26T09:39:52.637Z,30.03
2018-05-26T09:40:52.835Z,30.37
2018-05-26T09:41:52.787Z,29.79
2018-05-26T09:42:52.820Z,29.55
2018-05-26T09:43:52.697Z,29.10
2018-05-26T09:44:52.694Z,29.94
2018-05-26T09:45:52.749Z,29.78
2018-05-26T09:46:52.728Z,30.26
2018-05-26T09:47:52.746Z,30.69
2018-05-26T09:48:52.795Z,29.86
2018-05-26T09:49:52.822Z,28.56
2018-05-26T09:50:52.917Z,28.85
2018-05-26T09:51:52.953Z,29.79
2018-05-26T09:52:52.877Z,29.68
2018-05-26T09:53:52.999Z,29.92
2018-05-26T09:54:52.853Z,30.14
2018-05-26T09:55:52.861Z,29.99
2018-05-26T09:56:52.901Z,29.49
2018-05-26T09:57:52.918Z,29.04
2018-05-26T09:58:52.935Z,28.97
2018-05-26T09:59:53.121Z,29.49
2018-05-26T10:00:53.015Z,28.96
2018-05-26T10:01:53.073Z,29.20
2018-05-26T10:02:53.009Z,29.34
2018-05-26T10:03:53.035Z,29.38
2018-05-26T10:04:53.105Z,29.10
2018-05-26T10:05:53.130Z,28.72
2018-05-26T10:06:53.148Z,29.44
2018-05-26T10:07:53.290Z,29.92
2018-05-26T10:08:53.119Z,30.09
2018-05-26T10:09:53.312Z,29.81
2018-05-26T10:10:53.094Z,29.94
2018-05-26T10:11:53.181Z,30.47
2018-05-26T10:12:53.211Z,30.30
2018-05-26T10:13:53.199Z,30.46
2018-05-26T10:14:53.244Z,30.81
2018-05-26T10:15:53.219Z,30.67
2018-05-26T10:16:53.425Z,30.30
2018-05-26T10:17:53.576Z,29.56
2018-05-26T10:18:53.571Z,29.63
2018-05-26T10:19:53.963Z,29.89
2018-05-26T10:20:53.440Z,29.84
2018-05-26T10:21:53.560Z,29.94
2018-05-26T10:22:53.390Z,29.11
2018-05-26T10:23:53.460Z,29.47
2018-05-26T10:24:53.479Z,29.94
2018-05-26T10:25:53.730Z,30.76
2018-05-26T10:26:53.475Z,30.61
2018-05-26T10:27:53.581Z,30.21
2018-05-26T10:28:53.475Z,30.30
2018-05-26T10:29:53.640Z,31.17
2018-05-26T10:30:53.579Z,31.77
2018-05-26T10:31:53.650Z,30.96
2018-05-26T10:32:53.607Z,31.39
2018-05-26T10:33:53.633Z,31.12
2018-05-26T10:34:53.605Z,30.49
2018-05-26T10:35:53.683Z,30.40
2018-05-26T10:36:53.596Z,30.11
2018-05-26T10:37:53.584Z,29.97
2018-05-26T10:38:53.596Z,30.93
2018-05-26T10:39:53.571Z,31.61
2018-05-26T10:40:53.589Z,32.57
2018-05-26T10:41:53.606Z,31.55
2018-05-26T10:42:53.622Z,31.20
2018-05-26T10:43:53.635Z,30.99
2018-05-26T10:44:53.659Z,31.39
2018-05-26T10:45:53.682Z,31.35
2018-05-26T10:46:54.401Z,31.36
2018-05-26T10:47:53.718Z,31.28
2018-05-26T10:48:53.733Z,30.99
2018-05-26T10:49:53.748Z,30.45
2018-05-26T10:50:53.780Z,31.01
2018-05-26T10:51:53.807Z,30.26
2018-05-26T10:52:53.838Z,30.47
2018-05-26T10:53:53.907Z,30.68
2018-05-26T10:54:53.857Z,31.20
2018-05-26T10:55:53.928Z,31.84
2018-05-26T10:56:53.907Z,31.84
2018-05-26T10:57:53.913Z,32.33
2018-05-26T10:58:53.954Z,32.17
2018-05-26T10:59:53.989Z,31.23
2018-05-26T11:00:53.993Z,31.75
2018-05-26T11:01:53.999Z,31.58
2018-05-26T11:02:54.031Z,30.72
2018-05-26T11:03:54.034Z,30.76
2018-05-26T11:04:54.090Z,31.11
2018-05-26T11:05:54.121Z,31.58
2018-05-26T11:06:54.082Z,31.73
2018-05-26T11:07:54.109Z,32.11
2018-05-26T11:08:54.124Z,32.54
2018-05-26T11:09:54.150Z,33.30
2018-05-26T11:10:54.165Z,32.95
2018-05-26T11:11:54.227Z,33.48
2018-05-26T11:12:54.239Z,33.20
2018-05-26T11:13:54.232Z,32.42
2018-05-26T11:14:54.258Z,30.76
2018-05-26T11:15:54.310Z,30.33
2018-05-26T11:16:54.302Z,30.91
2018-05-26T11:17:54.491Z,30.56
2018-05-26T11:18:54.355Z,31.35
2018-05-26T11:19:54.340Z,31.76
2018-05-26T11:20:54.365Z,32.15
2018-05-26T11:21:54.379Z,32.15
2018-05-26T11:22:54.411Z,31.23
2018-05-26T11:23:54.456Z,31.05
2018-05-26T11:24:54.546Z,31.31
2018-05-26T11:25:54.464Z,30.74
2018-05-26T11:26:54.484Z,30.38
2018-05-26T11:27:54.500Z,30.83
2018-05-26T11:28:54.582Z,30.40
2018-05-26T11:29:54.771Z,30.75
2018-05-26T11:30:54.608Z,30.83
2018-05-26T11:31:54.576Z,31.21
2018-05-26T11:32:54.590Z,31.09
2018-05-26T11:33:54.636Z,31.62
2018-05-26T11:34:54.639Z,31.39
2018-05-26T11:35:54.697Z,30.31
2018-05-26T11:36:54.663Z,30.37
2018-05-26T11:37:54.702Z,30.19
2018-05-26T11:38:54.802Z,30.56
2018-05-26T11:39:54.735Z,30.52
2018-05-26T11:40:54.824Z,30.76
2018-05-26T11:41:54.762Z,30.91
2018-05-26T11:42:54.830Z,31.64
2018-05-26T11:43:54.797Z,30.93
2018-05-26T11:44:54.824Z,30.34
2018-05-26T11:45:54.830Z,30.52
2018-05-26T11:46:54.868Z,30.89
2018-05-26T11:47:54.909Z,30.68
2018-05-26T11:48:54.902Z,29.90
2018-05-26T11:49:54.937Z,29.97
2018-05-26T11:50:54.931Z,30.18
2018-05-26T11:51:54.944Z,31.06
2018-05-26T11:52:54.993Z,30.69
2018-05-26T11:53:55.028Z,31.15
2018-05-26T11:54:55.043Z,30.46
2018-05-26T11:55:55.057Z,30.18
2018-05-26T11:56:55.068Z,29.41
2018-05-26T11:57:55.056Z,29.72
2018-05-26T11:58:55.079Z,30.31
2018-05-26T11:59:55.116Z,30.43
2018-05-26T12:00:55.105Z,30.49
2018-05-26T12:01:55.170Z,30.26
2018-05-26T12:02:55.146Z,30.34
2018-05-26T12:03:55.190Z,30.18
2018-05-26T12:04:55.175Z,30.59
2018-05-26T12:05:55.210Z,30.80
2018-05-26T12:06:55.216Z,31.11
2018-05-26T12:07:55.236Z,32.05
2018-05-26T12:08:55.258Z,31.62
2018-05-26T12:09:55.268Z,31.02
2018-05-26T12:10:55.336Z,31.24
2018-05-26T12:11:55.304Z,31.23
2018-05-26T12:12:55.388Z,31.38
2018-05-26T12:13:55.341Z,31.70
2018-05-26T12:14:55.361Z,31.80
2018-05-26T12:15:55.394Z,31.26
2018-05-26T12:16:55.391Z,30.43
2018-05-26T12:17:55.406Z,30.26
2018-05-26T12:18:55.428Z,30.43
2018-05-26T12:19:55.435Z,31.13
2018-05-26T12:20:55.465Z,30.96
2018-05-26T12:21:55.543Z,30.89
2018-05-26T12:22:55.485Z,31.46
2018-05-26T12:23:55.512Z,32.44
2018-05-26T12:24:55.531Z,32.15
2018-05-26T12:25:55.549Z,31.99
2018-05-26T12:26:55.585Z,31.36
2018-05-26T12:27:55.574Z,30.45
2018-05-26T12:28:55.597Z,29.45
2018-05-26T12:29:55.613Z,28.91
2018-05-26T12:30:55.675Z,28.93
2018-05-26T12:31:55.660Z,28.91
2018-05-26T12:32:55.657Z,28.41
2018-05-26T12:33:55.709Z,28.53
2018-05-26T12:34:55.690Z,28.26
2018-05-26T12:35:55.709Z,28.25
2018-05-26T12:36:55.745Z,27.98
2018-05-26T12:37:55.740Z,27.80
2018-05-26T12:38:55.757Z,27.88
2018-05-26T12:39:55.765Z,27.94
2018-05-26T12:40:55.882Z,27.86
2018-05-26T12:41:55.830Z,27.76
2018-05-26T12:42:55.835Z,28.06
2018-05-26T12:43:55.833Z,27.99
2018-05-26T12:44:55.922Z,28.17
2018-05-26T12:45:55.850Z,28.33
2018-05-26T12:46:55.965Z,28.23
2018-05-26T12:47:55.922Z,28.41
2018-05-26T12:48:55.915Z,28.17
2018-05-26T12:49:55.902Z,27.98
2018-05-26T12:50:56.554Z,27.92
2018-05-26T12:51:55.956Z,27.74
2018-05-26T12:52:55.898Z,27.91
2018-05-26T12:53:55.954Z,27.88
2018-05-26T12:54:55.935Z,27.95
2018-05-26T12:55:55.931Z,27.85
2018-05-26T12:56:55.957Z,27.86
2018-05-26T12:57:55.971Z,27.76
2018-05-26T12:58:55.989Z,27.57
2018-05-26T12:59:55.984Z,27.53
2018-05-26T13:00:55.981Z,27.39
2018-05-26T13:01:55.985Z,27.38
2018-05-26T13:02:55.973Z,27.38
2018-05-26T13:03:56.006Z,27.39
2018-05-26T13:04:56.091Z,27.31
2018-05-26T13:05:56.014Z,27.46
2018-05-26T13:06:56.120Z,27.24
2018-05-26T13:07:56.099Z,27.36
2018-05-26T13:08:56.179Z,27.47
2018-05-26T13:09:56.062Z,27.61
2018-05-26T13:10:56.028Z,27.64
2018-05-26T13:12:56.081Z,27.57
2018-05-26T13:13:56.404Z,27.61
2018-05-26T13:14:56.060Z,27.76
2018-05-26T13:15:56.112Z,27.73
2018-05-26T13:16:56.138Z,27.53
2018-05-26T13:17:56.119Z,27.23
2018-05-26T13:19:17.156Z,27.20
2018-05-26T13:19:56.126Z,27.16
2018-05-26T13:20:56.111Z,27.28
2018-05-26T13:21:56.092Z,27.24
2018-05-26T13:22:56.154Z,27.16
2018-05-26T13:23:56.099Z,27.10
2018-05-26T13:25:17.180Z,27.06
2018-05-26T13:25:56.173Z,27.01
2018-05-26T13:26:56.126Z,27.21